Weather observations for the past three days for
Sioux City, Sioux Gateway Airport
Imperial (Metric)
Date Time (cdt) Wind (mph) Vis. (mi.) Weather Sky Cond. Temperature (ºF) Relative Humidity Wind Chill (°F) Heat Index (°F) Pressure Precipitation (in)
Air Dwpt 6 hour altimeter (in) sea level (mb) 1 hr 3 hr 6 hr
Max. Min.
06 16:52 NW 13 G 24 10.00 Partly Cloudy SCT090 59 19.9 22% 30 1016.6
06 15:52 NW 20 G 24 10.00 Mostly Cloudy BKN090 59 19.9 22% 30.02 1017.0
06 14:52 NW 16 G 22 10.00 Mostly Cloudy BKN080 55.9 21 26% 30.04 1017.8
06 13:52 NW 15 G 28 10.00 A Few Clouds FEW080 55 19.9 25% 30.06 1018.4
06 12:52 N 16 G 35 10.00 A Few Clouds FEW075 55 19.9 55.9 32 25% 30.08 1019.0
06 11:52 W 15 G 29 10.00 A Few Clouds FEW070 54 19.9 26% 30.09 1019.3
06 10:52 NW 16 G 26 10.00 Fair CLR 52 21.9 31% 30.09 1019.3
06 09:52 NW 14 10.00 Fair CLR 48.9 25 39% 44 30.09 1019.5
06 08:52 NW 7 10.00 Fair CLR 44.1 26.1 49% 41 30.09 1019.6
06 07:52 NW 6 10.00 Fair CLR 37.9 25 60% 34 30.09 1019.5
06 06:52 NW 3 10.00 Fair CLR 32 23 37.9 28.9 69% 30.06 1018.7
06 05:52 W 3 10.00 Fair CLR 32 21.9 66% 30.04 1017.8
06 04:52 NW 5 10.00 Fair CLR 30.9 21.9 69% 27 30.04 1017.8
06 03:52 NW 6 10.00 Fair CLR 33.1 23 66% 28 30.03 1017.4
06 02:52 W 6 10.00 Fair CLR 35.1 23 61% 31 30.02 1017.1
06 01:52 NW 5 10.00 Fair CLR 35.1 23 61% 32 30.01 1016.8
06 00:52 NW 5 10.00 Fair CLR 37 23 54 37 57% 34 30 1016.5
05 23:52 N 7 10.00 Fair CLR 41 23 49% 37 29.98 1015.8
05 22:52 N 12 10.00 Fair CLR 45 21.9 40% 40 29.98 1015.8
05 21:52 N 12 10.00 Fair CLR 46.9 21.9 37% 42 29.96 1015.1
05 20:52 N 10 10.00 Fair CLR 48.9 21.9 35% 45 29.94 1014.2
05 19:52 NW 14 10.00 Fair CLR 51.1 19.9 29% 29.93 1013.9
05 18:52 NW 10 G 21 10.00 Mostly Cloudy BKN080 53.1 19.9 57 53.1 27% 29.91 1013.3
05 17:52 N 20 G 28 10.00 Mostly Cloudy BKN080 55 21 26% 29.9 1013.0
05 16:52 NW 20 G 26 10.00 A Few Clouds FEW075 55 21 26% 29.9 1012.8
05 15:52 NW 21 G 32 10.00 Partly Cloudy and Breezy SCT075 55 23 29% 29.91 1013.1
05 14:52 NW 17 G 28 10.00 A Few Clouds FEW070 55 24.1 30% 29.93 1013.9
05 13:52 NW 18 G 28 10.00 Mostly Cloudy BKN070 54 25 33% 29.92 1013.6
05 12:52 NW 21 G 28 10.00 Mostly Cloudy and Breezy BKN065 55 25 55 39 31% 29.93 1014.0
05 11:52 N 10 G 24 10.00 Fair CLR 53.1 26.1 35% 29.95 1014.4
05 10:52 NW 10 10.00 Fair CLR 50 25 38% 46 29.94 1014.2
05 09:52 NW 10 10.00 Fair CLR 48 28 46% 44 29.93 1013.9
05 08:52 NW 8 10.00 Fair CLR 46.9 30.9 54% 44 29.91 1013.3
05 07:52 NW 6 10.00 Fair CLR 43 30 60% 40 29.89 1012.6
05 06:52 NW 7 9.00 Fair CLR 39 30 46 37 70% 35 29.88 1012.1
05 05:52 W 5 10.00 Fair CLR 37.9 28 68% 35 29.86 1011.4
05 04:52 NW 5 10.00 Fair CLR 39.9 28.9 65% 37 29.84 1010.6
05 03:52 NW 9 10.00 Fair CLR 41 30 65% 36 29.82 1009.8
05 02:52 NW 6 10.00 Fair CLR 43 30 60% 40 29.81 1009.5
05 01:52 NW 6 10.00 Fair CLR 45 30 56% 42 29.81 1009.3
05 00:52 SW 3 9.00 Fair CLR 43 30.9 57.9 43 63% 29.81 1009.5
04 23:52 NW 5 10.00 Fair CLR 48 28.9 48% 47 29.8 1009.1
04 22:52 N 8 10.00 Fair CLR 51.1 30 45% 29.8 1009.1
04 21:52 N 10 10.00 Partly Cloudy SCT120 53.1 28 38% 29.79 1008.7
04 20:52 N 18 10.00 Overcast OVC100 55 28 36% 29.77 1007.9
04 19:52 N 16 G 30 9.00 Light Rain FEW055 SCT070 OVC095 55 30 38% 29.76 1007.9
04 18:52 NW 20 G 30 10.00 A Few Clouds FEW110 57.9 30.9 73 57.9 36% 29.75 1007.5
04 17:52 N 23 G 33 10.00 Partly Cloudy and Breezy SCT110 61 33.1 35% 29.72 1006.5
04 15:52 N 25 G 38 10.00 Fair and Breezy CLR 70 35.1 28% 29.67 1004.5
04 14:52 NW 23 G 35 10.00 Fair and Breezy CLR 71.1 34 26% 29.65 1003.9
04 13:52 N 21 G 30 10.00 Fair and Breezy CLR 72 37 28% 29.63 1003.2
04 12:52 N 17 10.00 Fair CLR 72 37.9 72 46 29% 29.63 1003.0
04 11:52 N 17 G 29 10.00 Fair CLR 70 43 38% 29.61 1002.6
04 10:52 NW 20 G 26 10.00 Fair CLR 68 46 45% 29.6 1002.0
04 09:52 NW 17 10.00 Fair CLR 69.1 45 42% 29.57 1001.1
04 08:52 W 10 10.00 Fair CLR 66.9 42.1 41% 29.57 1000.8
04 07:52 SE 5 10.00 Fair CLR 54 41 62% 29.57 1001.2
04 06:52 E 6 10.00 Fair CLR 46 37 50 45 71% 44 29.58 1001.6
04 05:52 E 5 10.00 Partly Cloudy SCT110 46 37 71% 44 29.59 1001.8
04 04:52 E 3 10.00 Mostly Cloudy BKN100 BKN120 48 37 66% 29.6 1002.2
04 03:52 E 3 9.00 Fair CLR 46 36 68% 29.62 1002.8
04 02:52 E 5 10.00 Fair CLR 45 35.1 68% 43 29.63 1003.3
04 01:52 E 5 10.00 Fair CLR 46.9 35.1 63% 45 29.64 1003.7
04 00:52 E 3 9.00 Fair CLR 48.9 36 72 46.9 61% 29.68 1005.0
03 23:52 Calm 10.00 Fair CLR 48.9 37 64% 29.7 1005.6
03 22:52 E 3 10.00 Fair CLR 55.9 37.9 51% 29.72 1006.2
03 21:52 S 3 10.00 Fair CLR 57 39 51% 29.73 1006.7
03 20:52 Calm 10.00 Fair CLR 63 36 37% 29.74 1006.8
03 19:52 W 5 10.00 Fair CLR 69.1 37.9 32% 29.75 1007.2
03 18:52 NW 6 10.00 Fair CLR 72 37.9 73.9 70 29% 29.76 1007.7
03 17:52 NW 10 10.00 Fair CLR 73 37 27% 29.77 1008.1
Date Time (cdt) Wind (mph) Vis. (mi.) Weather Sky Cond. Air Dwpt Max. Min. Relative Humidity Wind Chill (°F) Heat Index (°F) altimeter (in) sea level (mb) 1 hr 3 hr 6 hr
6 hour
Temperature (ºF) Pressure Precipitation (in)